Time,TemperatureF,DewpointF,PressureIn,WindDirection,WindDirectionDegrees,WindSpeedMPH,WindSpeedGustMPH,Humidity,HourlyPrecipIn,Conditions,Clouds,dailyrainin,SoftwareType,DateUTC
2013-04-24 00:07:00,12.2,6.4,29.77,SW,225,0.0,-999.0,77,-99.99,,,0.00,Acu-Link.com,2013-04-24 06:07:00,
2013-04-24 00:22:00,13.5,6.5,29.77,NNE,22,0.0,-999.0,73,-99.99,,,0.00,Acu-Link.com,2013-04-24 06:22:00,
2013-04-24 00:37:00,13.5,7.1,29.79,WSW,247,0.0,-999.0,75,-99.99,,,0.00,Acu-Link.com,2013-04-24 06:37:00,
2013-04-24 00:52:00,12.9,6.5,29.78,North,0,0.0,-999.0,75,-99.99,,,0.00,Acu-Link.com,2013-04-24 06:52:00,
2013-04-24 01:08:00,11.3,6.1,29.78,SSW,202,0.0,-999.0,79,-99.99,,,0.00,Acu-Link.com,2013-04-24 07:08:00,
2013-04-24 01:23:00,11.8,6.6,29.78,South,180,0.0,-999.0,79,-99.99,,,0.00,Acu-Link.com,2013-04-24 07:23:00,
2013-04-24 01:38:00,11.1,5.6,29.77,WSW,247,0.0,-999.0,78,-99.99,,,0.00,Acu-Link.com,2013-04-24 07:38:00,
2013-04-24 01:54:00,10.4,4.9,29.76,WNW,292,0.0,-999.0,78,-99.99,,,0.00,Acu-Link.com,2013-04-24 07:54:00,
2013-04-24 02:09:00,11.1,5.3,29.76,West,270,0.0,-999.0,77,-99.99,,,0.00,Acu-Link.com,2013-04-24 08:09:00,
2013-04-24 02:24:00,12.7,4.8,29.76,SSW,202,0.0,-999.0,70,-99.99,,,0.00,Acu-Link.com,2013-04-24 08:24:00,
2013-04-24 02:40:00,12.2,5.2,29.76,ESE,112,0.0,-999.0,73,-99.99,,,0.00,Acu-Link.com,2013-04-24 08:40:00,
2013-04-24 02:55:00,12.9,5.3,29.74,West,270,0.0,-999.0,71,-99.99,,,0.00,Acu-Link.com,2013-04-24 08:55:00,
2013-04-24 03:10:00,13.1,4.9,29.74,SSE,157,0.0,-999.0,69,-99.99,,,0.00,Acu-Link.com,2013-04-24 09:10:00,
2013-04-24 03:25:00,12.2,4.3,29.74,ESE,112,0.0,-999.0,70,-99.99,,,0.00,Acu-Link.com,2013-04-24 09:25:00,
2013-04-24 03:40:00,12.7,4.5,29.75,NNE,22,0.0,-999.0,69,-99.99,,,0.00,Acu-Link.com,2013-04-24 09:40:00,
2013-04-24 03:56:00,12.6,5.0,29.74,SW,225,0.0,-999.0,71,-99.99,,,0.00,Acu-Link.com,2013-04-24 09:56:00,
2013-04-24 04:11:00,11.3,4.9,29.75,West,270,0.0,-999.0,75,-99.99,,,0.00,Acu-Link.com,2013-04-24 10:11:00,
2013-04-24 04:26:00,10.4,4.6,29.75,South,180,0.0,-999.0,77,-99.99,,,0.00,Acu-Link.com,2013-04-24 10:26:00,
2013-04-24 04:42:00,9.5,4.3,29.76,WSW,247,0.0,-999.0,79,-99.99,,,0.00,Acu-Link.com,2013-04-24 10:42:00,
2013-04-24 04:57:00,9.1,3.9,29.76,West,270,0.0,-999.0,79,-99.99,,,0.00,Acu-Link.com,2013-04-24 10:57:00,
2013-04-24 05:13:00,8.8,3.9,29.75,WSW,247,0.0,-999.0,80,-99.99,,,0.00,Acu-Link.com,2013-04-24 11:13:00,
2013-04-24 05:28:00,9.3,4.4,29.77,West,270,0.0,-999.0,80,-99.99,,,0.00,Acu-Link.com,2013-04-24 11:28:00,
2013-04-24 05:43:00,9.7,4.2,29.75,SSW,202,0.0,-999.0,78,-99.99,,,0.00,Acu-Link.com,2013-04-24 11:43:00,
2013-04-24 05:58:00,8.2,2.5,29.76,SSE,157,0.0,-999.0,77,-99.99,,,0.00,Acu-Link.com,2013-04-24 11:58:00,
2013-04-24 06:14:00,9.1,3.7,29.75,WSW,247,0.0,-999.0,78,-99.99,,,0.00,Acu-Link.com,2013-04-24 12:14:00,
2013-04-24 06:29:00,13.8,7.1,29.77,NW,315,0.0,-999.0,74,-99.99,,,0.00,Acu-Link.com,2013-04-24 12:29:00,
2013-04-24 06:44:00,16.7,8.3,29.75,WSW,247,2.2,-999.0,69,-99.99,,,0.00,Acu-Link.com,2013-04-24 12:44:00,
2013-04-24 07:00:00,19.0,8.9,29.75,SSE,157,0.0,-999.0,64,-99.99,,,0.00,Acu-Link.com,2013-04-24 13:00:00,
2013-04-24 07:15:00,23.5,10.9,29.75,WNW,292,1.7,-999.0,58,-99.99,,,0.00,Acu-Link.com,2013-04-24 13:15:00,
2013-04-24 07:30:00,25.5,12.0,29.77,SW,225,3.7,-999.0,56,-99.99,,,0.00,Acu-Link.com,2013-04-24 13:30:00,
2013-04-24 07:45:00,28.2,12.9,29.77,SSW,202,4.2,-999.0,52,-99.99,,,0.00,Acu-Link.com,2013-04-24 13:45:00,
2013-04-24 08:01:00,29.5,13.6,29.78,North,0,0.0,-999.0,51,-99.99,,,0.00,Acu-Link.com,2013-04-24 14:01:00,
2013-04-24 08:16:00,30.0,14.5,29.77,WNW,292,0.0,-999.0,52,-99.99,,,0.00,Acu-Link.com,2013-04-24 14:16:00,
2013-04-24 08:31:00,31.8,15.8,29.78,NNW,337,0.0,-999.0,51,-99.99,,,0.00,Acu-Link.com,2013-04-24 14:31:00,
2013-04-24 08:46:00,30.4,15.3,29.79,NW,315,1.1,-999.0,53,-99.99,,,0.00,Acu-Link.com,2013-04-24 14:46:00,
2013-04-24 09:02:00,28.2,15.3,29.80,West,270,2.7,-999.0,58,-99.99,,,0.00,Acu-Link.com,2013-04-24 15:02:00,
2013-04-24 09:17:00,28.8,15.1,29.82,NNE,22,1.7,-999.0,56,-99.99,,,0.00,Acu-Link.com,2013-04-24 15:17:00,
2013-04-24 09:32:00,30.0,15.0,29.82,West,270,2.2,-999.0,53,-99.99,,,0.00,Acu-Link.com,2013-04-24 15:32:00,
2013-04-24 09:48:00,32.0,15.9,29.83,West,270,1.7,-999.0,51,-99.99,,,0.00,Acu-Link.com,2013-04-24 15:48:00,
2013-04-24 10:03:00,30.9,16.2,29.81,West,270,1.7,-999.0,54,-99.99,,,0.00,Acu-Link.com,2013-04-24 16:03:00,
2013-04-24 10:18:00,32.7,15.2,29.80,SW,225,2.7,-999.0,48,-99.99,,,0.01,Acu-Link.com,2013-04-24 16:18:00,
2013-04-24 10:34:00,33.4,14.4,29.80,ESE,112,1.1,-999.0,45,-99.99,,,0.01,Acu-Link.com,2013-04-24 16:34:00,
2013-04-24 10:49:00,34.7,15.6,29.76,West,270,0.0,-999.0,45,-99.99,,,0.01,Acu-Link.com,2013-04-24 16:49:00,
2013-04-24 11:04:00,37.2,14.6,29.76,NNW,337,7.3,-999.0,39,-99.99,,,0.01,Acu-Link.com,2013-04-24 17:04:00,
2013-04-24 11:19:00,38.7,13.4,29.79,ESE,112,1.1,-999.0,35,-99.99,,,0.02,Acu-Link.com,2013-04-24 17:19:00,
2013-04-24 11:35:00,38.8,11.5,29.80,ENE,67,3.7,-999.0,32,-99.99,,,0.03,Acu-Link.com,2013-04-24 17:35:00,
2013-04-24 11:50:00,43.5,12.6,29.82,WNW,292,3.7,-999.0,28,-99.99,,,0.06,Acu-Link.com,2013-04-24 17:50:00,
2013-04-24 12:05:00,39.2,10.4,29.81,NNE,22,0.0,-999.0,30,-99.99,,,0.08,Acu-Link.com,2013-04-24 18:05:00,
2013-04-24 12:21:00,41.7,11.0,29.83,WSW,247,2.2,-999.0,28,-99.99,,,0.10,Acu-Link.com,2013-04-24 18:21:00,
2013-04-24 12:36:00,42.4,10.0,29.83,East,90,0.0,-999.0,26,-99.99,,,0.12,Acu-Link.com,2013-04-24 18:36:00,
2013-04-24 12:51:00,40.3,8.2,29.85,West,270,1.7,-999.0,26,-99.99,,,0.13,Acu-Link.com,2013-04-24 18:51:00,
2013-04-24 13:06:00,42.3,8.1,29.87,SSW,202,0.0,-999.0,24,-99.99,,,0.13,Acu-Link.com,2013-04-24 19:06:00,
2013-04-24 13:22:00,42.1,4.0,29.86,SSW,202,0.0,-999.0,20,-99.99,,,0.13,Acu-Link.com,2013-04-24 19:22:00,
2013-04-24 13:37:00,40.6,6.7,29.86,West,270,0.0,-999.0,24,-99.99,,,0.13,Acu-Link.com,2013-04-24 19:37:00,
2013-04-24 13:52:00,40.3,7.3,29.86,NW,315,9.4,-999.0,25,-99.99,,,0.14,Acu-Link.com,2013-04-24 19:52:00,
2013-04-24 14:07:00,42.1,8.8,29.85,NNW,337,6.3,-999.0,25,-99.99,,,0.14,Acu-Link.com,2013-04-24 20:07:00,
2013-04-24 14:22:00,41.9,11.2,29.84,NW,315,3.2,-999.0,28,-99.99,,,0.14,Acu-Link.com,2013-04-24 20:22:00,
2013-04-24 14:37:00,42.4,10.0,29.84,WNW,292,2.2,-999.0,26,-99.99,,,0.14,Acu-Link.com,2013-04-24 20:37:00,
2013-04-24 14:53:00,42.4,9.1,29.86,North,0,3.2,-999.0,25,-99.99,,,0.14,Acu-Link.com,2013-04-24 20:53:00,
2013-04-24 15:08:00,42.1,7.0,29.86,ESE,112,0.0,-999.0,23,-99.99,,,0.14,Acu-Link.com,2013-04-24 21:08:00,
2013-04-24 15:23:00,43.3,7.0,29.86,ESE,112,0.0,-999.0,22,-99.99,,,0.14,Acu-Link.com,2013-04-24 21:23:00,
2013-04-24 15:38:00,42.6,3.3,29.85,SW,225,0.0,-999.0,19,-99.99,,,0.14,Acu-Link.com,2013-04-24 21:38:00,
2013-04-24 15:53:00,42.4,10.8,29.84,East,90,0.0,-999.0,27,-99.99,,,0.14,Acu-Link.com,2013-04-24 21:53:00,
2013-04-24 16:09:00,42.1,7.9,29.84,SSW,202,0.0,-999.0,24,-99.99,,,0.14,Acu-Link.com,2013-04-24 22:09:00,
2013-04-24 16:24:00,41.9,8.7,29.84,West,270,1.7,-999.0,25,-99.99,,,0.14,Acu-Link.com,2013-04-24 22:24:00,
2013-04-24 16:39:00,40.3,4.5,29.84,SW,225,0.0,-999.0,22,-99.99,,,0.14,Acu-Link.com,2013-04-24 22:39:00,
2013-04-24 16:55:00,40.5,6.6,29.84,NE,45,0.0,-999.0,24,-99.99,,,0.14,Acu-Link.com,2013-04-24 22:55:00,
2013-04-24 17:10:00,39.7,4.0,29.84,ENE,67,0.0,-999.0,22,-99.99,,,0.14,Acu-Link.com,2013-04-24 23:10:00,
2013-04-24 17:25:00,39.4,6.5,29.84,NE,45,0.0,-999.0,25,-99.99,,,0.14,Acu-Link.com,2013-04-24 23:25:00,
2013-04-24 17:41:00,37.4,8.1,29.85,WSW,247,1.1,-999.0,29,-99.99,,,0.14,Acu-Link.com,2013-04-24 23:41:00,
2013-04-24 17:56:00,36.3,7.9,29.85,NNW,337,0.0,-999.0,30,-99.99,,,0.14,Acu-Link.com,2013-04-24 23:56:00,
2013-04-24 18:11:00,35.8,5.1,29.88,WNW,292,0.0,-999.0,27,-99.99,,,0.14,Acu-Link.com,2013-04-25 00:11:00,
2013-04-24 18:26:00,34.9,5.1,29.87,East,90,0.0,-999.0,28,-99.99,,,0.14,Acu-Link.com,2013-04-25 00:26:00,
2013-04-24 18:41:00,34.2,8.1,29.88,SSE,157,0.0,-999.0,33,-99.99,,,0.14,Acu-Link.com,2013-04-25 00:41:00,
2013-04-24 18:57:00,32.9,8.3,29.88,South,180,1.7,-999.0,35,-99.99,,,0.14,Acu-Link.com,2013-04-25 00:57:00,
2013-04-24 19:12:00,32.2,7.0,29.90,West,270,0.0,-999.0,34,-99.99,,,0.14,Acu-Link.com,2013-04-25 01:12:00,
2013-04-24 19:27:00,31.1,9.6,29.90,NNE,22,0.0,-999.0,40,-99.99,,,0.14,Acu-Link.com,2013-04-25 01:27:00,
2013-04-24 19:43:00,29.8,8.5,29.89,WSW,247,0.0,-999.0,40,-99.99,,,0.14,Acu-Link.com,2013-04-25 01:43:00,
2013-04-24 19:58:00,27.9,8.8,29.91,ESE,112,0.0,-999.0,44,-99.99,,,0.14,Acu-Link.com,2013-04-25 01:58:00,
2013-04-24 20:13:00,26.4,8.5,29.92,SSE,157,0.0,-999.0,46,-99.99,,,0.14,Acu-Link.com,2013-04-25 02:13:00,
2013-04-24 20:29:00,25.9,7.0,29.92,NW,315,0.0,-999.0,44,-99.99,,,0.14,Acu-Link.com,2013-04-25 02:29:00,
2013-04-24 20:44:00,25.7,7.8,29.92,SSW,202,0.0,-999.0,46,-99.99,,,0.14,Acu-Link.com,2013-04-25 02:44:00,
2013-04-24 20:59:00,25.5,8.6,29.93,West,270,0.0,-999.0,48,-99.99,,,0.14,Acu-Link.com,2013-04-25 02:59:00,
2013-04-24 21:14:00,24.3,8.8,29.93,SW,225,0.0,-999.0,51,-99.99,,,0.14,Acu-Link.com,2013-04-25 03:14:00,
2013-04-24 21:30:00,23.7,8.7,29.95,ENE,67,0.0,-999.0,52,-99.99,,,0.14,Acu-Link.com,2013-04-25 03:30:00,
2013-04-24 21:45:00,23.2,8.2,29.94,SSW,202,0.0,-999.0,52,-99.99,,,0.14,Acu-Link.com,2013-04-25 03:45:00,
2013-04-24 22:00:00,22.6,8.1,29.94,SSE,157,0.0,-999.0,53,-99.99,,,0.14,Acu-Link.com,2013-04-25 04:00:00,
2013-04-24 22:15:00,21.9,7.0,29.93,NE,45,0.0,-999.0,52,-99.99,,,0.14,Acu-Link.com,2013-04-25 04:15:00,
2013-04-24 22:30:00,21.4,7.0,29.95,West,270,0.0,-999.0,53,-99.99,,,0.14,Acu-Link.com,2013-04-25 04:30:00,
2013-04-24 22:46:00,23.0,6.3,29.93,West,270,0.0,-999.0,48,-99.99,,,0.14,Acu-Link.com,2013-04-25 04:46:00,
2013-04-24 23:01:00,23.5,6.7,29.93,NNW,337,0.0,-999.0,48,-99.99,,,0.14,Acu-Link.com,2013-04-25 05:01:00,
2013-04-24 23:16:00,23.9,6.2,29.91,NE,45,0.0,-999.0,46,-99.99,,,0.14,Acu-Link.com,2013-04-25 05:16:00,
2013-04-24 23:32:00,24.1,5.9,29.90,SSW,202,0.0,-999.0,45,-99.99,,,0.14,Acu-Link.com,2013-04-25 05:32:00,
2013-04-24 23:47:00,23.5,4.8,29.90,ESE,112,0.0,-999.0,44,-99.99,,,0.14,Acu-Link.com,2013-04-25 05:47:00,